createdAt,value
2022-09-12T00:01:27.721Z,101194.69
2022-09-12T00:03:59.785Z,101193.13
2022-09-12T00:06:29.796Z,101189.06
2022-09-12T00:08:59.445Z,101184.00
2022-09-12T00:11:27.741Z,101175.44
2022-09-12T00:13:57.724Z,101180.19
2022-09-12T00:16:27.726Z,101176.94
2022-09-12T00:18:56.850Z,101177.25
2022-09-12T00:21:25.599Z,101183.84
2022-09-12T00:23:53.265Z,101183.13
2022-09-12T00:26:22.562Z,101172.63
2022-09-12T00:28:50.355Z,101168.38
2022-09-12T00:31:20.721Z,101174.84
2022-09-12T00:33:48.604Z,101170.63
2022-09-12T00:36:20.705Z,101172.59
2022-09-12T00:38:49.943Z,101171.91
2022-09-12T00:41:20.942Z,101163.31
2022-09-12T00:43:50.468Z,101165.13
2022-09-12T00:46:28.794Z,101160.94
2022-09-12T00:49:00.273Z,101151.34
2022-09-12T00:51:31.487Z,101153.31
2022-09-12T00:54:00.962Z,101145.44
2022-09-12T00:56:29.059Z,101152.06
2022-09-12T00:59:00.630Z,101152.31
2022-09-12T01:01:32.351Z,101148.09
2022-09-12T01:04:00.796Z,101145.69
2022-09-12T01:06:33.946Z,101144.16
2022-09-12T01:09:04.146Z,101151.19
2022-09-12T01:11:32.587Z,101142.47
2022-09-12T01:14:00.686Z,101147.81
2022-09-12T01:16:28.690Z,101140.91
2022-09-12T01:19:16.778Z,101142.03
2022-09-12T01:21:56.323Z,101144.84
2022-09-12T01:24:54.801Z,101139.63
2022-09-12T01:27:44.529Z,101142.59
2022-09-12T01:30:24.567Z,101142.72
2022-09-12T01:33:05.163Z,101144.81
2022-09-12T01:35:44.041Z,101140.72
2022-09-12T01:38:25.600Z,101154.19
2022-09-12T01:41:02.586Z,101141.25
2022-09-12T01:43:38.515Z,101148.56
2022-09-12T01:46:14.229Z,101142.53
2022-09-12T01:48:47.435Z,101140.97
2022-09-12T01:51:23.302Z,101131.28
2022-09-12T01:53:55.587Z,101129.44
2022-09-12T01:56:26.555Z,101125.22
2022-09-12T01:58:59.295Z,101123.66
2022-09-12T02:01:30.448Z,101129.13
2022-09-12T02:04:05.476Z,101125.88
2022-09-12T02:06:39.376Z,101121.66
2022-09-12T02:09:11.913Z,101126.28
2022-09-12T02:11:44.331Z,101116.72
2022-09-12T02:14:15.682Z,101119.53
2022-09-12T02:16:49.371Z,101117.00
2022-09-12T02:19:19.668Z,101118.84
2022-09-12T02:21:52.898Z,101121.59
2022-09-12T02:24:22.532Z,101119.09
2022-09-12T02:26:55.658Z,101113.91
2022-09-12T02:29:23.576Z,101111.22
2022-09-12T02:31:58.508Z,101112.31
2022-09-12T02:34:39.816Z,101114.16
2022-09-12T02:37:16.727Z,101106.28
2022-09-12T02:39:45.506Z,101101.22
2022-09-12T02:42:14.131Z,101102.34
2022-09-12T02:44:42.511Z,101100.81
2022-09-12T02:47:18.103Z,101102.88
2022-09-12T02:49:46.418Z,101088.00
2022-09-12T02:52:14.279Z,101090.69
2022-09-12T02:54:42.835Z,101088.13
2022-09-12T02:57:20.628Z,101092.47
2022-09-12T02:59:53.283Z,101088.13
2022-09-12T03:02:31.018Z,101089.94
2022-09-12T03:05:31.000Z,101079.56
2022-09-12T03:08:45.998Z,101085.16
2022-09-12T03:11:33.995Z,101092.44
2022-09-12T03:14:13.559Z,101090.03
2022-09-12T03:16:47.835Z,101094.78
2022-09-12T03:19:25.387Z,101092.22
2022-09-12T03:22:03.148Z,101085.22
2022-09-12T03:24:34.145Z,101084.53
2022-09-12T03:27:09.491Z,101079.19
2022-09-12T03:29:39.650Z,101075.84
2022-09-12T03:32:07.395Z,101076.09
2022-09-12T03:34:36.533Z,101076.22
2022-09-12T03:37:04.464Z,101071.16
2022-09-12T03:39:32.556Z,101071.28
2022-09-12T03:42:00.118Z,101074.22
2022-09-12T03:44:28.022Z,101081.47
2022-09-12T03:46:55.589Z,101079.94
2022-09-12T03:49:23.143Z,101071.22
2022-09-12T03:51:52.076Z,101082.97
2022-09-12T03:54:19.614Z,101076.97
2022-09-12T03:56:47.228Z,101085.03
2022-09-12T03:59:14.750Z,101085.19
2022-09-12T04:01:42.444Z,101084.63
2022-09-12T04:04:10.809Z,101082.91
2022-09-12T04:06:38.392Z,101081.22
2022-09-12T04:09:07.411Z,101085.00
2022-09-12T04:11:35.767Z,101079.69
2022-09-12T04:14:03.313Z,101081.50
2022-09-12T04:16:32.253Z,101082.56
2022-09-12T04:19:00.346Z,101080.91
2022-09-12T04:21:28.256Z,101081.03
2022-09-12T04:23:55.870Z,101077.53
2022-09-12T04:26:24.761Z,101080.19
2022-09-12T04:28:57.638Z,101075.84
2022-09-12T04:31:25.859Z,101074.13
2022-09-12T04:33:57.751Z,101062.66
2022-09-12T04:36:26.844Z,101057.31
2022-09-12T04:38:55.407Z,101052.28
2022-09-12T04:41:27.399Z,101056.03
2022-09-12T04:43:58.153Z,101063.44
2022-09-12T04:46:26.724Z,101064.53
2022-09-12T04:48:56.824Z,101061.28
2022-09-12T04:51:28.000Z,101057.91
2022-09-12T04:53:57.764Z,101060.69
2022-09-12T04:56:27.251Z,101068.81
2022-09-12T04:58:55.110Z,101060.13
2022-09-12T05:01:23.976Z,101063.50
2022-09-12T05:03:52.629Z,101063.34
2022-09-12T05:06:22.273Z,101057.06
2022-09-12T05:08:50.314Z,101058.03
2022-09-12T05:11:24.553Z,101063.50
2022-09-12T05:13:55.104Z,101062.66
2022-09-12T05:16:23.921Z,101062.78
2022-09-12T05:18:51.664Z,101062.88
2022-09-12T05:21:21.617Z,101067.50
2022-09-12T05:23:52.611Z,101059.66
2022-09-12T05:26:21.455Z,101055.03
2022-09-12T05:28:50.293Z,101061.06
2022-09-12T05:31:20.766Z,101053.22
2022-09-12T05:33:50.031Z,101060.38
2022-09-12T05:36:19.590Z,101056.03
2022-09-12T05:38:48.232Z,101056.88
2022-09-12T05:41:20.861Z,101058.53
2022-09-12T05:43:53.840Z,101058.16
2022-09-12T05:46:25.137Z,101065.03
2022-09-12T05:48:56.440Z,101062.13
2022-09-12T05:51:26.461Z,101058.38
2022-09-12T05:53:56.598Z,101057.28
2022-09-12T05:56:26.304Z,101059.81
2022-09-12T05:58:56.997Z,101061.34
2022-09-12T06:01:27.114Z,101062.09
2022-09-12T06:03:56.367Z,101067.13
2022-09-12T06:06:26.116Z,101071.38
2022-09-12T06:08:56.966Z,101070.97
2022-09-12T06:11:26.774Z,101070.72
2022-09-12T06:13:54.808Z,101065.84
2022-09-12T06:16:24.631Z,101069.81
2022-09-12T06:18:55.266Z,101064.94
2022-09-12T06:21:25.260Z,101063.44
2022-09-12T06:23:54.811Z,101056.47
2022-09-12T06:26:25.688Z,101053.03
2022-09-12T06:28:54.728Z,101045.78
2022-09-12T06:31:25.060Z,101051.88
2022-09-12T06:33:55.552Z,101044.63
2022-09-12T06:36:26.917Z,101046.34
2022-09-12T06:38:56.136Z,101042.59
2022-09-12T06:41:25.310Z,101045.03
2022-09-12T06:43:53.347Z,101039.28
2022-09-12T06:46:21.229Z,101040.81
2022-09-12T06:48:49.278Z,101044.22
2022-09-12T06:51:19.993Z,101040.56
2022-09-12T06:53:49.098Z,101040.41
2022-09-12T06:56:18.860Z,101046.59
2022-09-12T06:58:48.214Z,101034.06
2022-09-12T07:01:17.010Z,101044.44
2022-09-12T07:03:48.559Z,101039.91
2022-09-12T07:06:19.703Z,101040.75
2022-09-12T07:08:48.138Z,101046.75
2022-09-12T07:11:17.677Z,101044.94
2022-09-12T07:13:47.322Z,101046.56
2022-09-12T07:16:19.441Z,101044.53
2022-09-12T07:18:51.737Z,101044.34
2022-09-12T07:21:20.998Z,101038.81
2022-09-12T07:23:49.159Z,101043.25
2022-09-12T07:26:17.926Z,101044.91
2022-09-12T07:28:45.795Z,101050.00
2022-09-12T07:31:15.987Z,101051.78
2022-09-12T07:33:44.782Z,101056.09
2022-09-12T07:36:14.387Z,101055.84
2022-09-12T07:38:44.269Z,101049.31
2022-09-12T07:41:12.918Z,101049.06
2022-09-12T07:43:40.930Z,101048.81
2022-09-12T07:46:09.093Z,101051.09
2022-09-12T07:48:37.912Z,101049.97
2022-09-12T07:51:07.771Z,101042.84
2022-09-12T07:53:37.414Z,101049.91
2022-09-12T07:56:07.267Z,101049.16
2022-09-12T07:58:36.653Z,101052.53
2022-09-12T08:01:05.118Z,101053.59
2022-09-12T08:03:32.882Z,101049.28
2022-09-12T08:06:07.551Z,101050.31
2022-09-12T08:08:35.939Z,101043.28
2022-09-12T08:11:06.961Z,101043.53
2022-09-12T08:13:35.915Z,101042.72
2022-09-12T08:16:05.758Z,101041.91
2022-09-12T08:18:34.270Z,101044.78
2022-09-12T08:21:03.970Z,101043.13
2022-09-12T08:23:32.236Z,101045.00
2022-09-12T08:26:05.311Z,101039.81
2022-09-12T08:28:36.654Z,101040.81
2022-09-12T08:31:05.582Z,101042.69
2022-09-12T08:33:34.026Z,101039.19
2022-09-12T08:36:06.493Z,101041.88
2022-09-12T08:38:34.284Z,101038.34
2022-09-12T08:41:08.064Z,101041.19
2022-09-12T08:43:56.668Z,101031.63
2022-09-12T08:46:33.238Z,101029.09
2022-09-12T08:49:03.748Z,101030.81
2022-09-12T08:51:34.308Z,101026.44
2022-09-12T08:54:03.388Z,101022.75
2022-09-12T08:56:37.605Z,101031.78
2022-09-12T08:59:06.543Z,101026.56
2022-09-12T09:01:41.819Z,101029.41
2022-09-12T09:04:37.677Z,101033.75
2022-09-12T09:07:26.036Z,101035.59
2022-09-12T09:10:07.872Z,101031.84
2022-09-12T09:12:45.964Z,101041.91
2022-09-12T09:15:45.539Z,101027.09
2022-09-12T09:18:20.957Z,101027.56
2022-09-12T09:20:53.316Z,101033.75
2022-09-12T09:23:27.437Z,101032.53
2022-09-12T09:26:00.406Z,101035.84
2022-09-12T09:28:35.883Z,101028.22
2022-09-12T09:31:06.761Z,101027.47
2022-09-12T09:33:36.107Z,101027.53
2022-09-12T09:36:14.767Z,101031.47
2022-09-12T09:38:49.747Z,101022.47
2022-09-12T09:41:32.831Z,101022.59
2022-09-12T09:44:02.782Z,101022.19
2022-09-12T09:46:32.770Z,101018.63
2022-09-12T09:49:03.142Z,101018.94
2022-09-12T09:51:37.828Z,101008.75
2022-09-12T09:54:18.254Z,101005.97
2022-09-12T09:56:45.966Z,101007.91
2022-09-12T09:59:18.102Z,101002.47
2022-09-12T10:01:49.220Z,101001.34
2022-09-12T10:04:21.727Z,100999.84
2022-09-12T10:06:52.763Z,100992.78
2022-09-12T10:09:27.024Z,100982.41
2022-09-12T10:11:56.107Z,100988.00
2022-09-12T10:14:38.929Z,100986.75
2022-09-12T10:17:34.102Z,100977.94
2022-09-12T10:20:21.909Z,100981.28
2022-09-12T10:22:50.434Z,100986.94
2022-09-12T10:25:20.389Z,100982.63
2022-09-12T10:27:54.382Z,100978.53
2022-09-12T10:30:24.980Z,100976.72
2022-09-12T10:32:55.441Z,100977.41
2022-09-12T10:35:25.083Z,100964.81
2022-09-12T10:37:56.627Z,100965.44
2022-09-12T10:40:27.412Z,100963.91
2022-09-12T10:42:56.667Z,100957.34
2022-09-12T10:45:29.988Z,100957.97
2022-09-12T10:48:04.143Z,100953.84
2022-09-12T10:50:41.189Z,100956.78
2022-09-12T10:53:19.092Z,100953.47
2022-09-12T10:56:08.786Z,100941.88
2022-09-12T10:59:01.142Z,100940.84
2022-09-12T11:01:41.377Z,100943.16
2022-09-12T11:04:30.189Z,100945.84
2022-09-12T11:07:07.642Z,100936.50
2022-09-12T11:09:43.163Z,100936.09
2022-09-12T11:12:19.030Z,100943.19
2022-09-12T11:15:01.540Z,100940.09
2022-09-12T11:17:42.124Z,100933.84
2022-09-12T11:20:42.227Z,100929.94
2022-09-12T11:23:43.700Z,100929.06
2022-09-12T11:26:26.572Z,100924.28
2022-09-12T11:29:07.446Z,100924.09
2022-09-12T11:31:57.520Z,100917.03
2022-09-12T11:34:38.345Z,100906.41
2022-09-12T11:37:26.451Z,100910.41
2022-09-12T11:39:56.099Z,100912.69
2022-09-12T11:42:29.880Z,100905.81
2022-09-12T11:45:04.087Z,100902.06
2022-09-12T11:47:35.595Z,100901.03
2022-09-12T11:50:16.121Z,100891.69
2022-09-12T11:52:45.013Z,100899.59
2022-09-12T11:55:18.269Z,100897.53
2022-09-12T11:57:49.357Z,100895.72
2022-09-12T12:00:19.948Z,100894.47
2022-09-12T12:02:56.328Z,100886.78
2022-09-12T12:05:28.354Z,100889.50
2022-09-12T12:07:59.127Z,100886.56
2022-09-12T12:10:33.874Z,100883.25
2022-09-12T12:13:04.379Z,100888.47
2022-09-12T12:15:32.731Z,100884.34
2022-09-12T12:18:03.554Z,100884.13
2022-09-12T12:20:31.658Z,100885.81
2022-09-12T12:23:00.871Z,100880.16
2022-09-12T12:25:41.970Z,100881.66
2022-09-12T12:28:09.547Z,100880.22
2022-09-12T12:31:05.376Z,100878.75
2022-09-12T12:33:56.455Z,100883.31
2022-09-12T12:36:34.350Z,100876.06
2022-09-12T12:39:45.507Z,100874.81
2022-09-12T12:42:46.182Z,100871.66
2022-09-12T12:45:52.210Z,100865.63
2022-09-12T12:48:22.179Z,100863.13
2022-09-12T12:50:49.787Z,100859.41
2022-09-12T12:53:20.916Z,100853.38
2022-09-12T12:55:52.566Z,100854.41
2022-09-12T12:58:30.514Z,100848.16
2022-09-12T13:01:12.637Z,100841.47
2022-09-12T13:03:44.552Z,100830.84
2022-09-12T13:06:30.254Z,100828.13
2022-09-12T13:09:01.296Z,100829.56
2022-09-12T13:11:34.408Z,100828.94
2022-09-12T13:14:04.408Z,100826.00
2022-09-12T13:16:35.194Z,100822.03
2022-09-12T13:19:06.168Z,100814.75
2022-09-12T13:21:33.965Z,100828.91
2022-09-12T13:24:03.074Z,100814.06
2022-09-12T13:26:36.842Z,100802.16
2022-09-12T13:29:16.383Z,100797.75
2022-09-12T13:31:47.354Z,100795.63
2022-09-12T13:34:20.496Z,100794.41
2022-09-12T13:37:12.432Z,100804.59
2022-09-12T13:39:48.337Z,100792.00
2022-09-12T13:42:42.434Z,100786.78
2022-09-12T13:45:20.039Z,100790.13
2022-09-12T13:47:49.578Z,100798.66
2022-09-12T13:50:20.942Z,100785.50
2022-09-12T13:52:53.071Z,100780.88
2022-09-12T13:55:30.040Z,100778.16
2022-09-12T13:58:01.599Z,100776.88
2022-09-12T14:00:32.320Z,100780.00
2022-09-12T14:03:18.742Z,100773.06
2022-09-12T14:05:56.363Z,100772.41
2022-09-12T14:08:25.302Z,100763.00
2022-09-12T14:10:53.434Z,100766.72
2022-09-12T14:13:25.904Z,100760.41
2022-09-12T14:15:55.843Z,100758.91
2022-09-12T14:18:26.888Z,100758.47
2022-09-12T14:20:57.417Z,100754.09
2022-09-12T14:23:30.123Z,100748.66
2022-09-12T14:25:59.882Z,100752.19
2022-09-12T14:28:30.182Z,100748.44
2022-09-12T14:31:00.507Z,100742.97
2022-09-12T14:33:28.648Z,100741.09
2022-09-12T14:36:11.247Z,100734.84
2022-09-12T14:38:43.776Z,100734.03
2022-09-12T14:41:14.164Z,100722.38
2022-09-12T14:43:46.302Z,100727.19
2022-09-12T14:46:20.452Z,100724.47
2022-09-12T14:48:51.936Z,100729.06
2022-09-12T14:51:24.157Z,100726.41
2022-09-12T14:53:52.008Z,100719.78
2022-09-12T14:56:22.919Z,100707.03
2022-09-12T14:58:51.891Z,100722.09
2022-09-12T15:01:25.470Z,100709.78
2022-09-12T15:03:55.229Z,100712.72
2022-09-12T15:06:29.603Z,100711.06
2022-09-12T15:09:00.527Z,100706.69
2022-09-12T15:11:28.087Z,100704.22
2022-09-12T15:13:57.071Z,100704.22
2022-09-12T15:16:24.746Z,100701.25
2022-09-12T15:18:53.164Z,100704.63
2022-09-12T15:21:22.065Z,100704.63
2022-09-12T15:23:50.612Z,100690.69
2022-09-12T15:26:20.233Z,100691.72
2022-09-12T15:28:47.995Z,100688.41
2022-09-12T15:31:24.539Z,100694.88
2022-09-12T15:33:52.301Z,100684.03
2022-09-12T15:36:21.905Z,100685.09
2022-09-12T15:38:50.500Z,100683.41
2022-09-12T15:41:20.284Z,100677.59
2022-09-12T15:43:48.660Z,100679.72
2022-09-12T15:46:19.303Z,100678.03
2022-09-12T15:48:47.097Z,100675.53
2022-09-12T15:51:16.048Z,100680.38
2022-09-12T15:53:44.216Z,100672.22
2022-09-12T15:56:12.066Z,100676.19
2022-09-12T15:58:54.695Z,100670.97
2022-09-12T16:01:28.101Z,100667.66
2022-09-12T16:03:55.884Z,100665.38
2022-09-12T16:06:23.977Z,100657.69
2022-09-12T16:08:51.706Z,100658.94
2022-09-12T16:11:22.942Z,100656.66
2022-09-12T16:13:50.779Z,100657.72
2022-09-12T16:16:18.372Z,100655.41
2022-09-12T16:18:47.648Z,100655.25
2022-09-12T16:21:16.067Z,100656.75
2022-09-12T16:23:44.121Z,100654.47
2022-09-12T16:26:11.922Z,100644.03
2022-09-12T16:28:39.631Z,100648.84
2022-09-12T16:31:09.216Z,100635.94
2022-09-12T16:33:39.626Z,100632.63
2022-09-12T16:36:10.812Z,100630.56
2022-09-12T16:38:42.228Z,100627.47
2022-09-12T16:41:10.018Z,100620.59
2022-09-12T16:43:38.059Z,100622.09
2022-09-12T16:46:07.852Z,100619.56
2022-09-12T16:48:35.564Z,100612.72
2022-09-12T16:51:05.709Z,100612.31
2022-09-12T16:53:36.912Z,100605.69
2022-09-12T16:56:05.190Z,100606.09
2022-09-12T16:58:37.417Z,100595.88
2022-09-12T17:01:10.084Z,100594.69
2022-09-12T17:03:37.873Z,100593.66
2022-09-12T17:06:08.063Z,100590.50
2022-09-12T17:08:39.619Z,100597.63
2022-09-12T17:11:09.307Z,100596.38
2022-09-12T17:14:02.625Z,100588.91
2022-09-12T17:16:25.145Z,100593.09
2022-09-12T17:18:53.349Z,100599.38
2022-09-12T17:21:22.258Z,100596.69
2022-09-12T17:23:51.411Z,100597.31
2022-09-12T17:26:20.668Z,100589.00
2022-09-12T17:28:48.744Z,100589.84
2022-09-12T17:31:17.142Z,100585.50
2022-09-12T17:33:45.150Z,100567.41
2022-09-12T17:36:15.421Z,100580.94
2022-09-12T17:38:44.638Z,100573.88
2022-09-12T17:41:17.275Z,100575.72
2022-09-12T17:43:46.268Z,100578.66
2022-09-12T17:46:14.649Z,100587.81
2022-09-12T17:48:42.398Z,100585.53
2022-09-12T17:53:38.293Z,100583.22
2022-09-12T17:56:07.308Z,100589.06
2022-09-12T17:58:37.213Z,100595.69
2022-09-12T18:01:25.389Z,100586.31
2022-09-12T18:03:55.496Z,100592.97
2022-09-12T18:06:23.256Z,100588.75
2022-09-12T18:08:51.319Z,100583.09
2022-09-12T18:11:18.935Z,100581.81
2022-09-12T18:13:48.388Z,100592.19
2022-09-12T18:16:16.271Z,100592.34
2022-09-12T18:18:44.066Z,100587.50
2022-09-12T18:21:12.962Z,100584.16
2022-09-12T18:23:40.762Z,100588.03
2022-09-12T18:26:10.626Z,100582.00
2022-09-12T18:28:40.210Z,100574.00
2022-09-12T18:31:13.153Z,100576.25
2022-09-12T18:33:40.915Z,100570.34
2022-09-12T18:36:10.558Z,100570.69
2022-09-12T18:38:38.424Z,100575.22
2022-09-12T18:41:08.084Z,100576.56
2022-09-12T18:43:37.508Z,100579.44
2022-09-12T18:46:05.902Z,100576.88
2022-09-12T18:48:35.261Z,100578.03
2022-09-12T18:51:05.801Z,100568.03
2022-09-12T18:53:34.136Z,100563.78
2022-09-12T18:56:03.251Z,100566.59
2022-09-12T18:58:30.836Z,100561.34
2022-09-12T19:00:58.780Z,100566.84
2022-09-12T19:03:26.422Z,100570.50
2022-09-12T19:05:55.411Z,100576.84
2022-09-12T19:08:23.502Z,100575.94
2022-09-12T19:10:57.678Z,100576.69
2022-09-12T19:13:25.380Z,100571.19
2022-09-12T19:15:53.031Z,100567.59
2022-09-12T19:18:20.649Z,100570.00
2022-09-12T19:20:51.485Z,100562.06
2022-09-12T19:23:20.588Z,100564.66
2022-09-12T19:25:56.412Z,100553.78
2022-09-12T19:28:24.408Z,100551.19
2022-09-12T19:30:52.150Z,100549.06
2022-09-12T19:33:20.116Z,100544.44
2022-09-12T19:35:47.812Z,100548.72
2022-09-12T19:38:15.721Z,100551.13
2022-09-12T19:40:44.967Z,100552.03
2022-09-12T19:43:12.629Z,100548.03
2022-09-12T19:45:47.697Z,100538.03
2022-09-12T19:48:15.527Z,100537.09
2022-09-12T19:50:43.137Z,100541.38
2022-09-12T19:53:10.785Z,100540.25
2022-09-12T19:55:38.895Z,100532.91
2022-09-12T19:58:08.255Z,100537.16
2022-09-12T20:00:36.911Z,100536.69
2022-09-12T20:03:05.986Z,100528.31
2022-09-12T20:05:34.358Z,100533.41
2022-09-12T20:08:02.996Z,100531.28
2022-09-12T20:10:31.116Z,100529.09
2022-09-12T20:12:58.692Z,100527.78
2022-09-12T20:15:27.797Z,100536.22
2022-09-12T20:17:56.284Z,100530.34
2022-09-12T20:20:26.548Z,100522.50
2022-09-12T20:22:54.376Z,100520.81
2022-09-12T20:25:21.912Z,100532.56
2022-09-12T20:27:49.775Z,100518.50
2022-09-12T20:30:17.574Z,100516.81
2022-09-12T20:32:46.712Z,100521.53
2022-09-12T20:35:14.221Z,100508.13
2022-09-12T20:37:41.846Z,100507.44
2022-09-12T20:40:10.592Z,100509.50
2022-09-12T20:42:38.595Z,100509.50
2022-09-12T20:45:07.049Z,100504.31
2022-09-12T20:47:35.289Z,100504.47
2022-09-12T20:50:04.609Z,100493.06
2022-09-12T20:52:32.388Z,100493.06
2022-09-12T20:54:59.966Z,100494.09
2022-09-12T20:57:28.690Z,100483.53
2022-09-12T20:59:56.225Z,100481.69
2022-09-12T21:02:24.213Z,100477.34
2022-09-12T21:04:52.301Z,100472.13
2022-09-12T21:07:21.225Z,100465.09
2022-09-12T21:09:49.204Z,100453.72
2022-09-12T21:12:17.100Z,100445.84
2022-09-12T21:14:44.724Z,100439.81
2022-09-12T21:17:12.392Z,100448.06
2022-09-12T21:19:40.075Z,100444.72
2022-09-12T21:22:07.654Z,100437.84
2022-09-12T21:24:36.667Z,100444.22
2022-09-12T21:27:04.884Z,100439.06
2022-09-12T21:29:32.782Z,100439.22
2022-09-12T21:32:00.383Z,100441.25
2022-09-12T21:34:28.076Z,100437.75
2022-09-12T21:36:55.669Z,100436.06
2022-09-12T21:39:23.220Z,100431.72
2022-09-12T21:41:52.700Z,100424.84
2022-09-12T21:44:20.292Z,100429.38
2022-09-12T21:46:47.946Z,100425.22
2022-09-12T21:49:15.680Z,100431.63
2022-09-12T21:51:43.219Z,100434.44
2022-09-12T21:54:11.000Z,100432.13
2022-09-12T21:56:38.558Z,100453.13
2022-09-12T21:59:07.472Z,100463.19
2022-09-12T22:01:35.528Z,100468.91
2022-09-12T22:04:03.532Z,100470.94
2022-09-12T22:06:31.456Z,100457.72
2022-09-12T22:08:58.994Z,100458.88
2022-09-12T22:11:26.979Z,100445.84
2022-09-12T22:13:54.549Z,100442.84
2022-09-12T22:16:23.622Z,100432.66
2022-09-12T22:18:52.536Z,100436.88
2022-09-12T22:21:21.897Z,100438.06
2022-09-12T22:24:06.998Z,100441.94
2022-09-12T22:26:41.914Z,100444.94
2022-09-12T22:29:10.678Z,100442.59
2022-09-12T22:31:40.090Z,100443.81
2022-09-12T22:34:08.198Z,100430.75
2022-09-12T22:36:38.965Z,100430.09
2022-09-12T22:39:07.018Z,100436.66
2022-09-12T22:41:34.608Z,100427.94
2022-09-12T22:44:02.477Z,100423.75
2022-09-12T22:46:30.830Z,100430.97
2022-09-12T22:48:59.924Z,100431.13
2022-09-12T22:51:28.366Z,100428.81
2022-09-12T22:53:56.370Z,100441.38
2022-09-12T22:56:24.019Z,100430.84
2022-09-12T22:58:52.760Z,100437.03
2022-09-12T23:01:20.381Z,100437.19
2022-09-12T23:03:48.199Z,100437.88
2022-09-12T23:06:17.841Z,100438.06
2022-09-12T23:08:45.961Z,100440.88
2022-09-12T23:11:15.908Z,100441.06
2022-09-12T23:13:45.298Z,100438.56
2022-09-12T23:16:16.151Z,100440.56
2022-09-12T23:18:43.866Z,100443.25
2022-09-12T23:21:12.920Z,100437.25
2022-09-12T23:23:42.285Z,100445.47
2022-09-12T23:26:12.350Z,100443.78
2022-09-12T23:28:41.221Z,100446.81
2022-09-12T23:31:09.964Z,100442.47
2022-09-12T23:33:37.908Z,100437.28
2022-09-12T23:36:07.585Z,100442.47
2022-09-12T23:38:36.205Z,100443.47
2022-09-12T23:41:05.403Z,100439.97
2022-09-12T23:43:33.975Z,100446.34
2022-09-12T23:46:01.723Z,100446.34
2022-09-12T23:48:29.635Z,100436.44
2022-09-12T23:50:57.503Z,100436.28
2022-09-12T23:53:25.297Z,100436.44
2022-09-12T23:55:53.140Z,100431.09
2022-09-12T23:58:22.685Z,100427.72
